createdAt,value
2022-10-29T00:04:27.935Z,3.80
2022-10-29T00:09:26.199Z,4.20
2022-10-29T00:14:28.495Z,4.40
2022-10-29T00:19:29.479Z,4.03
2022-10-29T00:24:27.605Z,4.85
2022-10-29T00:29:28.223Z,5.07
2022-10-29T00:34:30.501Z,4.53
2022-10-29T00:39:31.144Z,4.05
2022-10-29T00:44:32.903Z,4.60
2022-10-29T00:49:32.873Z,4.78
2022-10-29T00:54:32.430Z,4.63
2022-10-29T00:59:33.439Z,4.25
2022-10-29T01:04:35.530Z,4.28
2022-10-29T01:09:33.755Z,3.97
2022-10-29T01:14:33.802Z,4.35
2022-10-29T01:19:45.970Z,5.00
2022-10-29T01:24:53.109Z,4.65
2022-10-29T01:29:58.706Z,5.13
2022-10-29T01:34:59.782Z,4.10
2022-10-29T01:39:59.187Z,4.57
2022-10-29T01:44:59.560Z,4.38
2022-10-29T01:50:03.038Z,4.38
2022-10-29T01:55:01.346Z,4.28
2022-10-29T02:00:01.119Z,4.13
2022-10-29T02:05:04.573Z,4.35
2022-10-29T02:10:06.574Z,6.05
2022-10-29T02:15:05.982Z,4.80
2022-10-29T02:20:06.427Z,4.78
2022-10-29T02:25:05.628Z,4.22
2022-10-29T02:30:04.034Z,4.28
2022-10-29T02:35:02.448Z,4.72
2022-10-29T02:40:02.080Z,4.50
2022-10-29T02:45:00.233Z,4.70
2022-10-29T02:49:58.386Z,5.03
2022-10-29T02:54:56.539Z,5.30
2022-10-29T02:59:56.125Z,4.45
2022-10-29T03:04:54.288Z,4.50
2022-10-29T03:09:52.567Z,4.97
2022-10-29T03:14:50.751Z,4.32
2022-10-29T03:19:50.273Z,4.10
2022-10-29T03:24:48.419Z,4.95
2022-10-29T03:29:46.571Z,4.60
2022-10-29T03:34:44.843Z,4.78
2022-10-29T03:39:44.388Z,4.90
2022-10-29T03:44:42.697Z,4.68
2022-10-29T03:49:40.868Z,4.90
2022-10-29T03:54:39.155Z,5.70
2022-10-29T03:59:38.744Z,5.32
2022-10-29T04:04:37.004Z,4.63
2022-10-29T04:09:35.232Z,4.43
2022-10-29T04:14:33.494Z,4.28
2022-10-29T04:19:33.063Z,4.88
2022-10-29T04:29:49.384Z,5.75
2022-10-29T04:34:48.974Z,4.63
2022-10-29T04:39:47.126Z,5.00
2022-10-29T04:44:45.328Z,5.45
2022-10-29T04:49:43.605Z,4.57
2022-10-29T04:54:43.189Z,5.82
2022-10-29T04:59:41.374Z,5.30
2022-10-29T05:04:39.603Z,4.88
2022-10-29T05:09:37.771Z,4.60
2022-10-29T05:14:37.355Z,5.07
2022-10-29T05:19:35.502Z,4.10
2022-10-29T05:24:33.698Z,5.03
2022-10-29T05:29:31.910Z,5.10
2022-10-29T05:34:31.593Z,4.72
2022-10-29T05:39:29.736Z,4.32
2022-10-29T05:44:27.913Z,4.82
2022-10-29T05:49:26.068Z,4.78
2022-10-29T05:54:25.605Z,4.90
2022-10-29T05:59:23.865Z,4.60
2022-10-29T06:04:22.192Z,5.13
2022-10-29T06:09:20.456Z,5.20
2022-10-29T06:14:19.978Z,6.47
2022-10-29T06:19:18.273Z,4.65
2022-10-29T06:24:16.576Z,4.55
2022-10-29T06:29:14.754Z,4.55
2022-10-29T06:34:14.849Z,4.95
2022-10-29T06:39:13.232Z,5.53
2022-10-29T06:44:11.423Z,4.70
2022-10-29T06:49:09.643Z,4.90
2022-10-29T06:54:09.222Z,5.07
2022-10-29T06:59:08.704Z,5.90
2022-10-29T07:04:06.937Z,4.97
2022-10-29T07:09:05.185Z,4.93
2022-10-29T07:14:06.037Z,24.88
2022-10-29T07:19:04.752Z,11.02
2022-10-29T07:24:02.960Z,6.25
2022-10-29T07:29:01.128Z,11.52
2022-10-29T07:34:00.688Z,12.90
2022-10-29T07:39:00.983Z,12.63
2022-10-29T07:43:59.263Z,6.30
2022-10-29T07:48:57.399Z,7.53
2022-10-29T07:53:57.039Z,6.97
2022-10-29T07:58:55.207Z,6.35
2022-10-29T08:03:53.509Z,7.97
2022-10-29T08:08:51.717Z,7.93
2022-10-29T08:13:51.240Z,14.45
2022-10-29T08:18:49.505Z,7.30
2022-10-29T08:23:47.756Z,6.95
2022-10-29T08:28:46.072Z,6.43
2022-10-29T08:33:48.483Z,9.32
2022-10-29T08:38:47.852Z,6.20
2022-10-29T08:43:58.147Z,4.88
2022-10-29T08:48:59.134Z,7.82
2022-10-29T08:59:18.248Z,6.07
2022-10-29T09:04:23.245Z,6.03
2022-10-29T09:09:28.412Z,4.53
2022-10-29T09:14:37.224Z,6.07
2022-10-29T09:19:43.022Z,8.30
2022-10-29T09:24:44.005Z,4.93
2022-10-29T09:29:57.068Z,5.00
2022-10-29T09:34:59.285Z,4.93
2022-10-29T09:39:58.301Z,5.55
2022-10-29T09:44:58.190Z,6.22
2022-10-29T09:50:07.282Z,5.55
2022-10-29T09:55:08.550Z,5.50
2022-10-29T10:00:07.771Z,7.00
2022-10-29T10:10:20.990Z,6.80
2022-10-29T10:15:20.341Z,7.38
2022-10-29T10:20:27.483Z,6.15
2022-10-29T10:25:46.798Z,6.57
2022-10-29T10:30:46.760Z,5.03
2022-10-29T10:35:45.017Z,5.20
2022-10-29T10:40:43.552Z,5.95
2022-10-29T10:45:42.351Z,6.13
2022-10-29T10:50:41.967Z,5.15
2022-10-29T10:55:40.799Z,5.40
2022-10-29T11:00:41.082Z,5.65
2022-10-29T11:05:41.701Z,4.60
2022-10-29T11:10:43.431Z,4.93
2022-10-29T11:15:45.618Z,5.22
2022-10-29T11:20:46.005Z,6.68
2022-10-29T11:25:49.843Z,4.97
2022-10-29T11:30:50.812Z,5.80
2022-10-29T11:35:51.616Z,4.20
2022-10-29T11:40:54.590Z,5.93
2022-10-29T11:45:59.334Z,4.90
2022-10-29T11:51:00.189Z,3.72
2022-10-29T11:56:05.494Z,3.88
2022-10-29T12:01:08.312Z,5.82
2022-10-29T12:06:10.370Z,3.10
2022-10-29T12:11:14.086Z,3.53
2022-10-29T12:16:15.948Z,4.40
2022-10-29T12:21:19.355Z,3.85
2022-10-29T12:26:22.473Z,4.13
2022-10-29T12:31:27.046Z,3.25
2022-10-29T12:41:25.497Z,4.28
2022-10-29T12:46:29.671Z,7.10
2022-10-29T12:51:30.367Z,4.80
2022-10-29T12:56:32.676Z,6.10
2022-10-29T13:02:10.504Z,5.25
2022-10-29T13:07:23.633Z,5.28
2022-10-29T13:12:37.054Z,6.18
2022-10-29T13:17:39.016Z,5.60
2022-10-29T13:23:03.927Z,5.07
2022-10-29T13:28:31.148Z,7.55
2022-10-29T13:33:45.772Z,5.43
2022-10-29T13:38:58.715Z,6.85
2022-10-29T13:44:06.473Z,5.93
2022-10-29T13:49:08.380Z,5.78
2022-10-29T13:54:11.171Z,11.02
2022-10-29T13:59:12.459Z,5.03
2022-10-29T14:04:17.280Z,3.55
2022-10-29T14:09:21.371Z,9.35
2022-10-29T14:14:24.743Z,8.25
2022-10-29T14:19:23.342Z,6.60
2022-10-29T14:24:22.918Z,5.18
2022-10-29T14:29:21.905Z,5.13
2022-10-29T14:34:24.112Z,4.35
2022-10-29T14:39:28.832Z,9.35
2022-10-29T14:44:32.296Z,7.35
2022-10-29T14:49:31.084Z,6.25
2022-10-29T14:54:31.868Z,5.35
2022-10-29T14:59:31.175Z,4.65
2022-10-29T15:04:30.137Z,16.55
2022-10-29T15:09:29.272Z,22.13
2022-10-29T15:14:36.657Z,9.48
2022-10-29T15:19:34.948Z,23.65
2022-10-29T15:24:33.236Z,21.63
2022-10-29T15:29:38.108Z,28.83
2022-10-29T15:34:38.889Z,40.33
2022-10-29T15:40:00.671Z,24.88
2022-10-29T15:45:15.834Z,20.08
2022-10-29T15:55:14.591Z,25.15
2022-10-29T16:00:14.802Z,65.68
2022-10-29T16:05:13.350Z,38.65
2022-10-29T16:10:15.487Z,34.55
2022-10-29T16:15:16.465Z,15.75
2022-10-29T16:20:16.123Z,36.33
2022-10-29T16:25:22.004Z,18.90
2022-10-29T16:30:22.158Z,40.90
2022-10-29T16:35:21.467Z,30.20
2022-10-29T16:40:20.023Z,15.85
2022-10-29T16:45:19.586Z,10.27
2022-10-29T16:50:19.870Z,23.88
2022-10-29T16:55:18.127Z,18.15
2022-10-29T17:00:16.678Z,4.50
2022-10-29T17:05:15.309Z,4.70
2022-10-29T17:10:14.937Z,4.03
2022-10-29T17:15:13.166Z,5.45
2022-10-29T17:20:11.748Z,4.22
2022-10-29T17:25:10.303Z,4.40
2022-10-29T17:30:10.857Z,4.78
2022-10-29T17:35:09.291Z,4.88
2022-10-29T17:40:08.463Z,5.10
2022-10-29T17:45:07.442Z,4.03
2022-10-29T17:50:07.596Z,4.10
2022-10-29T17:55:06.134Z,4.93
2022-10-29T18:00:04.727Z,3.88
2022-10-29T18:05:03.014Z,4.50
2022-10-29T18:10:05.747Z,4.68
2022-10-29T18:15:03.912Z,4.18
2022-10-29T18:20:02.361Z,4.40
2022-10-29T18:25:00.547Z,4.15
2022-10-29T18:30:00.082Z,4.85
2022-10-29T18:34:58.306Z,4.80
2022-10-29T18:39:59.027Z,4.65
2022-10-29T18:44:57.220Z,5.80
2022-10-29T18:49:56.880Z,4.65
2022-10-29T18:54:55.193Z,5.05
2022-10-29T18:59:53.529Z,4.88
2022-10-29T19:04:51.695Z,5.72
2022-10-29T19:09:51.296Z,4.97
2022-10-29T19:14:49.565Z,5.25
2022-10-29T19:19:47.837Z,4.20
2022-10-29T19:24:46.051Z,4.95
2022-10-29T19:29:45.787Z,5.15
2022-10-29T19:34:45.213Z,4.45
2022-10-29T19:39:43.362Z,4.82
2022-10-29T19:44:41.545Z,5.00
2022-10-29T19:49:41.057Z,4.82
2022-10-29T19:54:39.281Z,4.65
2022-10-29T19:59:37.513Z,4.90
2022-10-29T20:04:35.776Z,4.93
2022-10-29T20:09:35.318Z,4.40
2022-10-29T20:14:35.671Z,4.38
2022-10-29T20:19:33.890Z,4.68
2022-10-29T20:24:32.051Z,4.53
2022-10-29T20:29:31.632Z,4.32
2022-10-29T20:34:29.847Z,4.20
2022-10-29T20:39:32.387Z,4.25
2022-10-29T20:44:33.055Z,5.10
2022-10-29T20:49:31.300Z,3.88
2022-10-29T20:54:29.495Z,5.22
2022-10-29T20:59:27.688Z,4.22
2022-10-29T21:04:27.235Z,4.18
2022-10-29T21:09:25.533Z,4.40
2022-10-29T21:14:23.747Z,4.25
2022-10-29T21:19:22.872Z,4.30
2022-10-29T21:24:22.397Z,4.07
2022-10-29T21:29:20.669Z,4.45
2022-10-29T21:34:18.821Z,4.22
2022-10-29T21:39:16.995Z,3.55
2022-10-29T21:44:16.616Z,4.32
2022-10-29T21:49:14.764Z,4.00
2022-10-29T21:54:12.970Z,4.40
2022-10-29T21:59:11.113Z,4.18
2022-10-29T22:04:11.412Z,5.05
2022-10-29T22:09:10.081Z,4.00
2022-10-29T22:14:08.316Z,4.68
2022-10-29T22:19:06.490Z,4.50
2022-10-29T22:24:06.565Z,4.38
2022-10-29T22:29:04.802Z,3.95
2022-10-29T22:34:03.007Z,4.05
2022-10-29T22:39:03.866Z,3.70
2022-10-29T22:44:06.727Z,4.07
2022-10-29T22:49:04.954Z,4.05
2022-10-29T22:54:03.403Z,3.92
2022-10-29T22:59:01.764Z,4.30
2022-10-29T23:04:02.266Z,4.05
2022-10-29T23:09:01.799Z,4.00
2022-10-29T23:14:01.743Z,3.97
2022-10-29T23:19:02.348Z,4.15
2022-10-29T23:24:00.608Z,4.63
2022-10-29T23:28:58.776Z,4.20
2022-10-29T23:33:57.974Z,4.15
2022-10-29T23:38:58.238Z,4.40
2022-10-29T23:43:56.519Z,4.43
2022-10-29T23:48:54.845Z,4.03
2022-10-29T23:53:56.604Z,4.20
2022-10-29T23:58:57.746Z,4.10
